LKPR/PRG METAR and TAF weather

Enter ICAO airport designator
Station Type Date Time Source
LKPR METAR 2020/12/01 21:30 UTC NOAA

LKPR 012130Z 12004KT 9000 BKN013 M03/M04 Q1020 NOSIG


Station Type Date Time Source
LKPR Decoded METAR 2020/12/01 21:30 UTC NOAA

Praha / Ruzyne, Czech Republic (LKPR) 50-06N 014-15E 365M
Dec 01, 2020 - 04:30 PM EST / 2020.12.01 2130 UTC
Wind: from the ESE (120 degrees) at 5 MPH (4 KT):0
Visibility: 5 mile(s):0
Sky conditions: mostly cloudy
Temperature: 26 F (-3 C)
Windchill: 19 F (-7 C):1
Dew Point: 24 F (-4 C)
Relative Humidity: 92%
Pressure (altimeter): 30.12 in. Hg (1020 hPa)
ob: LKPR 012130Z 12004KT 9000 BKN013 M03/M04 Q1020 NOSIG
cycle: 21

Station Type Date Time Source
LKPR TAF 2020/12/01 18:04 UTC NOAA

TAF LKPR 011700Z 0118/0300 13005KT 9999 SCT030
BECMG 0122/0200 4000 BR
TEMPO 0200/0209 2000 MIFG SCT003 PROB30
TEMPO 0201/0208 1200 BCFG BKN003
TEMPO 0209/0216 9999 BKN022
BECMG 0216/0218 CAVOK

Example: see airport list